sensor_id;sensor_type;location;lat;lon;timestamp;pressure;altitude;pressure_sealevel;temperature;humidity
71424;BME280;59240;51.370;-0.486;2023-08-06T00:02:26;101176.38;;;14.58;100.00
71424;BME280;59240;51.370;-0.486;2023-08-06T00:07:23;101180.09;;;14.51;100.00
71424;BME280;59240;51.370;-0.486;2023-08-06T00:12:20;101189.03;;;14.44;100.00
71424;BME280;59240;51.370;-0.486;2023-08-06T00:17:17;101213.53;;;14.43;100.00
71424;BME280;59240;51.370;-0.486;2023-08-06T00:22:13;101188.84;;;14.22;100.00
71424;BME280;59240;51.370;-0.486;2023-08-06T00:27:10;101220.19;;;14.25;100.00
71424;BME280;59240;51.370;-0.486;2023-08-06T00:32:07;101236.69;;;14.29;100.00
71424;BME280;59240;51.370;-0.486;2023-08-06T00:37:04;101243.03;;;14.20;100.00
71424;BME280;59240;51.370;-0.486;2023-08-06T00:42:01;101252.09;;;14.10;100.00
71424;BME280;59240;51.370;-0.486;2023-08-06T00:46:57;101247.06;;;14.02;100.00
71424;BME280;59240;51.370;-0.486;2023-08-06T00:51:54;101258.53;;;13.98;100.00
71424;BME280;59240;51.370;-0.486;2023-08-06T00:56:51;101255.44;;;13.84;100.00
71424;BME280;59240;51.370;-0.486;2023-08-06T01:01:49;101264.31;;;13.80;100.00
71424;BME280;59240;51.370;-0.486;2023-08-06T01:06:49;101276.59;;;13.76;100.00
71424;BME280;59240;51.370;-0.486;2023-08-06T01:13:03;101282.13;;;13.65;100.00
71424;BME280;59240;51.370;-0.486;2023-08-06T01:17:27;101291.06;;;13.57;100.00
71424;BME280;59240;51.370;-0.486;2023-08-06T01:22:25;101297.25;;;13.54;100.00
71424;BME280;59240;51.370;-0.486;2023-08-06T01:27:32;101300.00;;;13.50;100.00
71424;BME280;59240;51.370;-0.486;2023-08-06T01:32:32;101305.41;;;13.42;100.00
71424;BME280;59240;51.370;-0.486;2023-08-06T01:37:31;101307.22;;;13.40;100.00
71424;BME280;59240;51.370;-0.486;2023-08-06T01:42:28;101313.50;;;13.33;100.00
71424;BME280;59240;51.370;-0.486;2023-08-06T01:47:26;101280.81;;;13.13;100.00
71424;BME280;59240;51.370;-0.486;2023-08-06T01:52:23;101317.03;;;13.30;100.00
71424;BME280;59240;51.370;-0.486;2023-08-06T01:57:20;101318.09;;;13.25;100.00
71424;BME280;59240;51.370;-0.486;2023-08-06T02:02:17;101335.50;;;13.26;100.00
71424;BME280;59240;51.370;-0.486;2023-08-06T02:07:14;101337.34;;;13.21;100.00
71424;BME280;59240;51.370;-0.486;2023-08-06T02:12:10;101344.41;;;13.15;100.00
71424;BME280;59240;51.370;-0.486;2023-08-06T02:17:07;101343.66;;;13.10;100.00
71424;BME280;59240;51.370;-0.486;2023-08-06T02:22:04;101352.41;;;13.09;100.00
71424;BME280;59240;51.370;-0.486;2023-08-06T02:27:01;101330.22;;;12.88;100.00
71424;BME280;59240;51.370;-0.486;2023-08-06T02:31:58;101353.56;;;12.96;100.00
71424;BME280;59240;51.370;-0.486;2023-08-06T02:36:55;101350.22;;;12.90;100.00
71424;BME280;59240;51.370;-0.486;2023-08-06T02:41:51;101353.03;;;12.82;100.00
71424;BME280;59240;51.370;-0.486;2023-08-06T02:46:49;101352.22;;;12.80;100.00
71424;BME280;59240;51.370;-0.486;2023-08-06T02:51:45;101345.31;;;12.76;100.00
71424;BME280;59240;51.370;-0.486;2023-08-06T02:56:44;101349.75;;;12.72;100.00
71424;BME280;59240;51.370;-0.486;2023-08-06T03:01:41;101362.88;;;12.71;100.00
71424;BME280;59240;51.370;-0.486;2023-08-06T03:06:38;101362.06;;;12.67;100.00
71424;BME280;59240;51.370;-0.486;2023-08-06T03:11:35;101369.13;;;12.64;100.00
71424;BME280;59240;51.370;-0.486;2023-08-06T03:16:31;101367.50;;;12.58;100.00
71424;BME280;59240;51.370;-0.486;2023-08-06T03:21:28;101361.53;;;12.51;100.00
71424;BME280;59240;51.370;-0.486;2023-08-06T03:26:25;101367.69;;;12.47;100.00
71424;BME280;59240;51.370;-0.486;2023-08-06T03:31:22;101360.84;;;12.42;100.00
71424;BME280;59240;51.370;-0.486;2023-08-06T03:36:18;101360.09;;;12.35;100.00
71424;BME280;59240;51.370;-0.486;2023-08-06T03:41:15;101375.78;;;12.37;100.00
71424;BME280;59240;51.370;-0.486;2023-08-06T03:46:12;101380.88;;;12.41;100.00
71424;BME280;59240;51.370;-0.486;2023-08-06T03:51:09;101373.25;;;12.32;100.00
71424;BME280;59240;51.370;-0.486;2023-08-06T03:56:06;101377.56;;;12.33;100.00
71424;BME280;59240;51.370;-0.486;2023-08-06T04:01:03;101382.78;;;12.33;100.00
71424;BME280;59240;51.370;-0.486;2023-08-06T04:06:02;101393.22;;;12.36;100.00
71424;BME280;59240;51.370;-0.486;2023-08-06T04:10:59;101394.97;;;12.36;100.00
71424;BME280;59240;51.370;-0.486;2023-08-06T04:16:03;101391.66;;;12.26;100.00
71424;BME280;59240;51.370;-0.486;2023-08-06T04:21:01;101397.81;;;12.23;100.00
71424;BME280;59240;51.370;-0.486;2023-08-06T04:25:58;101411.66;;;12.27;100.00
71424;BME280;59240;51.370;-0.486;2023-08-06T04:30:55;101417.78;;;12.26;100.00
71424;BME280;59240;51.370;-0.486;2023-08-06T04:35:55;101407.66;;;12.08;100.00
71424;BME280;59240;51.370;-0.486;2023-08-06T04:40:53;101436.19;;;12.18;100.00
71424;BME280;59240;51.370;-0.486;2023-08-06T04:45:51;101443.19;;;12.18;100.00
71424;BME280;59240;51.370;-0.486;2023-08-06T04:50:50;101447.56;;;12.16;100.00
71424;BME280;59240;51.370;-0.486;2023-08-06T04:55:47;101451.09;;;12.15;100.00
71424;BME280;59240;51.370;-0.486;2023-08-06T05:00:44;101424.34;;;11.99;100.00
71424;BME280;59240;51.370;-0.486;2023-08-06T05:05:41;101451.13;;;12.12;100.00
71424;BME280;59240;51.370;-0.486;2023-08-06T05:10:38;101459.84;;;12.11;100.00
71424;BME280;59240;51.370;-0.486;2023-08-06T05:15:34;101446.97;;;12.00;100.00
71424;BME280;59240;51.370;-0.486;2023-08-06T05:20:36;101475.41;;;12.17;100.00
71424;BME280;59240;51.370;-0.486;2023-08-06T05:25:36;101484.03;;;12.22;100.00
71424;BME280;59240;51.370;-0.486;2023-08-06T05:30:32;101492.63;;;12.27;100.00
71424;BME280;59240;51.370;-0.486;2023-08-06T05:35:29;101492.53;;;12.33;100.00
71424;BME280;59240;51.370;-0.486;2023-08-06T05:40:26;101435.94;;;12.32;100.00
71424;BME280;59240;51.370;-0.486;2023-08-06T05:45:23;101479.72;;;13.09;100.00
71424;BME280;59240;51.370;-0.486;2023-08-06T05:50:20;101492.81;;;13.49;100.00
71424;BME280;59240;51.370;-0.486;2023-08-06T05:55:16;101453.50;;;13.52;100.00
71424;BME280;59240;51.370;-0.486;2023-08-06T06:00:13;101476.22;;;13.87;100.00
71424;BME280;59240;51.370;-0.486;2023-08-06T06:05:10;101503.38;;;14.19;100.00
71424;BME280;59240;51.370;-0.486;2023-08-06T06:10:07;101526.69;;;14.30;100.00
71424;BME280;59240;51.370;-0.486;2023-08-06T06:15:05;101523.75;;;14.42;100.00
71424;BME280;59240;51.370;-0.486;2023-08-06T06:20:02;101521.81;;;14.50;100.00
71424;BME280;59240;51.370;-0.486;2023-08-06T06:25:00;101526.44;;;14.39;100.00
71424;BME280;59240;51.370;-0.486;2023-08-06T06:29:57;101538.38;;;14.52;100.00
71424;BME280;59240;51.370;-0.486;2023-08-06T06:34:54;101514.94;;;14.44;100.00
71424;BME280;59240;51.370;-0.486;2023-08-06T06:39:51;101542.19;;;14.73;100.00
71424;BME280;59240;51.370;-0.486;2023-08-06T06:44:47;101535.41;;;14.97;100.00
71424;BME280;59240;51.370;-0.486;2023-08-06T06:49:44;101531.53;;;15.10;100.00
71424;BME280;59240;51.370;-0.486;2023-08-06T06:54:41;101530.97;;;15.28;100.00
71424;BME280;59240;51.370;-0.486;2023-08-06T06:59:38;101547.78;;;15.52;100.00
71424;BME280;59240;51.370;-0.486;2023-08-06T07:04:35;101547.47;;;15.63;100.00
71424;BME280;59240;51.370;-0.486;2023-08-06T07:09:32;101553.13;;;15.79;100.00
71424;BME280;59240;51.370;-0.486;2023-08-06T07:14:28;101560.47;;;15.96;100.00
71424;BME280;59240;51.370;-0.486;2023-08-06T07:19:26;101554.84;;;16.08;100.00
71424;BME280;59240;51.370;-0.486;2023-08-06T07:24:22;101556.22;;;16.18;100.00
71424;BME280;59240;51.370;-0.486;2023-08-06T07:29:19;101543.88;;;16.47;100.00
71424;BME280;59240;51.370;-0.486;2023-08-06T07:34:18;101546.00;;;16.62;100.00
71424;BME280;59240;51.370;-0.486;2023-08-06T07:39:15;101574.47;;;17.01;100.00
71424;BME280;59240;51.370;-0.486;2023-08-06T07:44:13;101586.41;;;17.11;100.00
71424;BME280;59240;51.370;-0.486;2023-08-06T07:49:10;101588.22;;;17.09;98.71
71424;BME280;59240;51.370;-0.486;2023-08-06T07:54:08;101570.66;;;17.33;100.00
71424;BME280;59240;51.370;-0.486;2023-08-06T07:59:05;101579.28;;;17.60;99.83
71424;BME280;59240;51.370;-0.486;2023-08-06T08:04:02;101561.88;;;17.56;99.21
71424;BME280;59240;51.370;-0.486;2023-08-06T08:08:58;101580.19;;;17.82;98.02
71424;BME280;59240;51.370;-0.486;2023-08-06T08:13:55;101582.50;;;17.91;98.00
71424;BME280;59240;51.370;-0.486;2023-08-06T08:18:52;101587.06;;;17.86;97.37
71424;BME280;59240;51.370;-0.486;2023-08-06T08:23:49;101588.09;;;18.04;96.34
71424;BME280;59240;51.370;-0.486;2023-08-06T08:28:45;101594.22;;;18.04;96.37
71424;BME280;59240;51.370;-0.486;2023-08-06T08:33:42;101593.44;;;18.02;94.95
71424;BME280;59240;51.370;-0.486;2023-08-06T08:38:39;101599.63;;;18.01;94.89
71424;BME280;59240;51.370;-0.486;2023-08-06T08:43:36;101594.13;;;18.08;94.92
71424;BME280;59240;51.370;-0.486;2023-08-06T08:48:33;101601.91;;;18.11;93.69
71424;BME280;59240;51.370;-0.486;2023-08-06T08:53:31;101552.81;;;17.86;93.97
71424;BME280;59240;51.370;-0.486;2023-08-06T08:58:28;101604.13;;;18.21;93.67
71424;BME280;59240;51.370;-0.486;2023-08-06T09:03:25;101600.00;;;18.36;93.77
71424;BME280;59240;51.370;-0.486;2023-08-06T09:08:27;101616.84;;;18.54;94.59
71424;BME280;59240;51.370;-0.486;2023-08-06T09:13:26;101597.69;;;18.49;93.75
71424;BME280;59240;51.370;-0.486;2023-08-06T09:18:27;101616.09;;;18.72;94.96
71424;BME280;59240;51.370;-0.486;2023-08-06T09:23:28;101624.75;;;18.76;91.11
71424;BME280;59240;51.370;-0.486;2023-08-06T09:28:37;101632.06;;;18.69;89.05
71424;BME280;59240;51.370;-0.486;2023-08-06T09:33:38;101634.91;;;18.85;90.98
71424;BME280;59240;51.370;-0.486;2023-08-06T09:38:39;101631.19;;;19.30;92.15
71424;BME280;59240;51.370;-0.486;2023-08-06T09:43:43;101624.03;;;19.71;95.28
71424;BME280;59240;51.370;-0.486;2023-08-06T09:48:40;101624.94;;;19.89;87.28
71424;BME280;59240;51.370;-0.486;2023-08-06T09:53:38;101634.47;;;20.29;86.03
71424;BME280;59240;51.370;-0.486;2023-08-06T09:58:38;101616.94;;;20.63;86.96
71424;BME280;59240;51.370;-0.486;2023-08-06T10:03:35;101625.19;;;20.91;83.69
71424;BME280;59240;51.370;-0.486;2023-08-06T10:08:33;101650.94;;;21.05;79.70
71424;BME280;59240;51.370;-0.486;2023-08-06T10:13:31;101627.41;;;20.99;81.41
71424;BME280;59240;51.370;-0.486;2023-08-06T10:18:30;101651.03;;;21.54;79.73
71424;BME280;59240;51.370;-0.486;2023-08-06T10:23:34;101626.06;;;21.58;76.57
71424;BME280;59240;51.370;-0.486;2023-08-06T10:28:38;101633.09;;;21.59;77.93
71424;BME280;59240;51.370;-0.486;2023-08-06T10:33:43;101631.28;;;21.44;80.20
71424;BME280;59240;51.370;-0.486;2023-08-06T10:38:48;101640.06;;;21.27;77.89
71424;BME280;59240;51.370;-0.486;2023-08-06T10:43:47;101659.84;;;21.21;74.23
71424;BME280;59240;51.370;-0.486;2023-08-06T10:48:45;101671.06;;;21.09;71.65
71424;BME280;59240;51.370;-0.486;2023-08-06T10:53:47;101656.09;;;20.91;74.06
71424;BME280;59240;51.370;-0.486;2023-08-06T10:58:46;101646.31;;;20.75;74.66
71424;BME280;59240;51.370;-0.486;2023-08-06T11:03:45;101661.56;;;20.70;73.77
71424;BME280;59240;51.370;-0.486;2023-08-06T11:08:48;101668.41;;;20.57;73.81
71424;BME280;59240;51.370;-0.486;2023-08-06T11:13:46;101644.53;;;20.40;71.04
71424;BME280;59240;51.370;-0.486;2023-08-06T11:18:44;101667.41;;;20.41;72.14
71424;BME280;59240;51.370;-0.486;2023-08-06T11:23:41;101667.53;;;20.38;71.24
71424;BME280;59240;51.370;-0.486;2023-08-06T11:28:38;101671.59;;;20.28;68.40
71424;BME280;59240;51.370;-0.486;2023-08-06T11:33:35;101668.47;;;20.19;67.72
71424;BME280;59240;51.370;-0.486;2023-08-06T11:38:32;101662.88;;;20.26;68.59
71424;BME280;59240;51.370;-0.486;2023-08-06T11:43:30;101663.91;;;20.40;70.72
71424;BME280;59240;51.370;-0.486;2023-08-06T11:48:27;101657.41;;;20.47;69.41
71424;BME280;59240;51.370;-0.486;2023-08-06T11:53:27;101641.63;;;20.63;71.00
71424;BME280;59240;51.370;-0.486;2023-08-06T11:58:24;101669.66;;;20.85;69.31
71424;BME280;59240;51.370;-0.486;2023-08-06T12:03:21;101654.72;;;20.84;67.79
71424;BME280;59240;51.370;-0.486;2023-08-06T12:08:27;101661.50;;;20.89;67.92
71424;BME280;59240;51.370;-0.486;2023-08-06T12:13:24;101662.13;;;20.94;66.04
71424;BME280;59240;51.370;-0.486;2023-08-06T12:18:21;101664.91;;;21.09;65.74
71424;BME280;59240;51.370;-0.486;2023-08-06T12:23:18;101648.19;;;21.24;64.51
71424;BME280;59240;51.370;-0.486;2023-08-06T12:28:15;101651.34;;;21.32;62.33
71424;BME280;59240;51.370;-0.486;2023-08-06T12:33:12;101652.03;;;21.36;61.32
71424;BME280;59240;51.370;-0.486;2023-08-06T12:38:09;101663.94;;;21.27;60.83
71424;BME280;59240;51.370;-0.486;2023-08-06T12:43:06;101664.50;;;21.16;61.93
71424;BME280;59240;51.370;-0.486;2023-08-06T12:48:03;101654.72;;;21.01;61.97
71424;BME280;59240;51.370;-0.486;2023-08-06T12:53:00;101665.72;;;20.93;61.00
71424;BME280;59240;51.370;-0.486;2023-08-06T12:57:57;101666.31;;;20.98;60.74
71424;BME280;59240;51.370;-0.486;2023-08-06T13:02:54;101672.22;;;21.03;59.88
71424;BME280;59240;51.370;-0.486;2023-08-06T13:07:52;101673.94;;;21.04;59.67
71424;BME280;59240;51.370;-0.486;2023-08-06T13:12:49;101685.25;;;21.08;60.16
71424;BME280;59240;51.370;-0.486;2023-08-06T13:17:45;101678.56;;;21.01;59.19
71424;BME280;59240;51.370;-0.486;2023-08-06T13:22:42;101680.72;;;20.93;59.07
71424;BME280;59240;51.370;-0.486;2023-08-06T13:27:41;101677.91;;;20.79;60.67
71424;BME280;59240;51.370;-0.486;2023-08-06T13:32:40;101676.59;;;20.53;61.85
71424;BME280;59240;51.370;-0.486;2023-08-06T13:37:37;101694.66;;;20.62;62.64
71424;BME280;59240;51.370;-0.486;2023-08-06T13:42:34;101704.84;;;20.69;63.00
71424;BME280;59240;51.370;-0.486;2023-08-06T13:47:31;101689.91;;;20.68;62.39
71424;BME280;59240;51.370;-0.486;2023-08-06T13:52:28;101672.06;;;20.55;62.37
71424;BME280;59240;51.370;-0.486;2023-08-06T13:57:25;101698.56;;;21.07;61.64
71424;BME280;59240;51.370;-0.486;2023-08-06T14:02:22;101697.16;;;21.34;61.24
71424;BME280;59240;51.370;-0.486;2023-08-06T14:07:19;101699.44;;;21.42;60.54
71424;BME280;59240;51.370;-0.486;2023-08-06T14:12:16;101699.56;;;21.39;59.37
71424;BME280;59240;51.370;-0.486;2023-08-06T14:17:13;101700.50;;;21.20;58.19
71424;BME280;59240;51.370;-0.486;2023-08-06T14:22:10;101699.88;;;20.98;57.78
71424;BME280;59240;51.370;-0.486;2023-08-06T14:27:07;101703.41;;;20.81;57.93
71424;BME280;59240;51.370;-0.486;2023-08-06T14:32:04;101698.63;;;20.70;57.40
71424;BME280;59240;51.370;-0.486;2023-08-06T14:37:01;101701.75;;;20.61;57.50
71424;BME280;59240;51.370;-0.486;2023-08-06T14:41:58;101701.41;;;20.50;57.35
71424;BME280;59240;51.370;-0.486;2023-08-06T14:46:54;101695.59;;;20.42;58.43
71424;BME280;59240;51.370;-0.486;2023-08-06T14:51:52;101697.47;;;20.40;57.95
71424;BME280;59240;51.370;-0.486;2023-08-06T14:56:48;101685.47;;;20.33;58.14
71424;BME280;59240;51.370;-0.486;2023-08-06T15:01:45;101689.66;;;20.37;58.07
71424;BME280;59240;51.370;-0.486;2023-08-06T15:06:42;101690.38;;;20.59;58.33
71424;BME280;59240;51.370;-0.486;2023-08-06T15:11:39;101695.75;;;20.92;57.75
71424;BME280;59240;51.370;-0.486;2023-08-06T15:16:36;101701.38;;;21.71;57.07
71424;BME280;59240;51.370;-0.486;2023-08-06T15:21:33;101666.75;;;22.22;55.55
71424;BME280;59240;51.370;-0.486;2023-08-06T15:26:30;101679.88;;;22.86;53.46
71424;BME280;59240;51.370;-0.486;2023-08-06T15:31:36;101692.00;;;23.20;51.05
71424;BME280;59240;51.370;-0.486;2023-08-06T15:36:34;101693.09;;;23.75;51.63
71424;BME280;59240;51.370;-0.486;2023-08-06T15:41:30;101681.78;;;24.13;49.12
71424;BME280;59240;51.370;-0.486;2023-08-06T15:46:27;101692.97;;;24.32;47.01
71424;BME280;59240;51.370;-0.486;2023-08-06T15:51:24;101672.38;;;24.48;47.19
71424;BME280;59240;51.370;-0.486;2023-08-06T15:56:21;101697.00;;;24.79;47.32
71424;BME280;59240;51.370;-0.486;2023-08-06T16:01:17;101694.19;;;24.68;45.75
71424;BME280;59240;51.370;-0.486;2023-08-06T16:06:17;101713.75;;;24.13;46.51
71424;BME280;59240;51.370;-0.486;2023-08-06T16:11:14;101728.03;;;23.10;48.96
71424;BME280;59240;51.370;-0.486;2023-08-06T16:16:11;101728.16;;;22.16;52.19
71424;BME280;59240;51.370;-0.486;2023-08-06T16:21:08;101709.22;;;21.57;54.67
71424;BME280;59240;51.370;-0.486;2023-08-06T16:26:04;101734.97;;;21.55;56.74
71424;BME280;59240;51.370;-0.486;2023-08-06T16:31:01;101709.34;;;21.71;56.37
71424;BME280;59240;51.370;-0.486;2023-08-06T16:35:58;101705.44;;;21.61;56.96
71424;BME280;59240;51.370;-0.486;2023-08-06T16:40:55;101730.38;;;21.74;57.76
71424;BME280;59240;51.370;-0.486;2023-08-06T16:45:53;101734.41;;;21.81;58.13
71424;BME280;59240;51.370;-0.486;2023-08-06T16:50:58;101730.34;;;21.92;58.33
71424;BME280;59240;51.370;-0.486;2023-08-06T16:55:56;101717.28;;;21.71;57.92
71424;BME280;59240;51.370;-0.486;2023-08-06T17:00:54;101737.22;;;21.63;57.55
71424;BME280;59240;51.370;-0.486;2023-08-06T17:05:52;101738.56;;;21.37;57.03
71424;BME280;59240;51.370;-0.486;2023-08-06T17:10:49;101739.78;;;21.12;57.35
71424;BME280;59240;51.370;-0.486;2023-08-06T17:15:46;101726.53;;;20.95;57.91
71424;BME280;59240;51.370;-0.486;2023-08-06T17:20:44;101702.97;;;20.71;58.29
71424;BME280;59240;51.370;-0.486;2023-08-06T17:25:42;101730.31;;;20.72;58.17
71424;BME280;59240;51.370;-0.486;2023-08-06T17:30:40;101723.06;;;20.58;58.25
71424;BME280;59240;51.370;-0.486;2023-08-06T17:35:42;101706.56;;;20.34;58.89
71424;BME280;59240;51.370;-0.486;2023-08-06T17:40:39;101732.81;;;20.39;57.75
71424;BME280;59240;51.370;-0.486;2023-08-06T17:45:36;101743.69;;;20.33;56.94
71424;BME280;59240;51.370;-0.486;2023-08-06T17:50:32;101742.53;;;20.19;57.50
71424;BME280;59240;51.370;-0.486;2023-08-06T17:55:30;101759.41;;;20.17;57.19
71424;BME280;59240;51.370;-0.486;2023-08-06T18:00:27;101762.34;;;20.11;56.15
71424;BME280;59240;51.370;-0.486;2023-08-06T18:05:24;101748.94;;;19.95;55.58
71424;BME280;59240;51.370;-0.486;2023-08-06T18:10:22;101767.97;;;20.03;55.46
71424;BME280;59240;51.370;-0.486;2023-08-06T18:15:19;101743.31;;;19.84;55.01
71424;BME280;59240;51.370;-0.486;2023-08-06T18:20:16;101765.38;;;19.83;55.03
71424;BME280;59240;51.370;-0.486;2023-08-06T18:25:12;101740.63;;;19.65;55.09
71424;BME280;59240;51.370;-0.486;2023-08-06T18:30:09;101767.66;;;19.72;55.54
71424;BME280;59240;51.370;-0.486;2023-08-06T18:35:07;101763.50;;;19.66;55.28
71424;BME280;59240;51.370;-0.486;2023-08-06T18:40:06;101766.47;;;19.58;56.16
71424;BME280;59240;51.370;-0.486;2023-08-06T18:45:03;101775.81;;;19.45;56.60
71424;BME280;59240;51.370;-0.486;2023-08-06T18:50:01;101774.50;;;19.35;57.08
71424;BME280;59240;51.370;-0.486;2023-08-06T18:54:57;101783.59;;;19.28;57.94
71424;BME280;59240;51.370;-0.486;2023-08-06T18:59:54;101782.28;;;19.18;58.05
71424;BME280;59240;51.370;-0.486;2023-08-06T19:04:54;101781.69;;;19.11;59.00
71424;BME280;59240;51.370;-0.486;2023-08-06T19:09:51;101796.78;;;19.07;59.18
71424;BME280;59240;51.370;-0.486;2023-08-06T19:14:47;101794.28;;;19.04;59.84
71424;BME280;59240;51.370;-0.486;2023-08-06T19:19:44;101794.41;;;19.01;59.83
71424;BME280;59240;51.370;-0.486;2023-08-06T19:24:41;101797.06;;;19.01;60.34
71424;BME280;59240;51.370;-0.486;2023-08-06T19:29:39;101795.44;;;18.97;60.32
71424;BME280;59240;51.370;-0.486;2023-08-06T19:34:35;101784.34;;;18.89;60.64
71424;BME280;59240;51.370;-0.486;2023-08-06T19:39:32;101763.25;;;18.66;60.98
71424;BME280;59240;51.370;-0.486;2023-08-06T19:44:29;101783.31;;;18.71;60.53
71424;BME280;59240;51.370;-0.486;2023-08-06T19:49:26;101800.34;;;18.63;60.81
71424;BME280;59240;51.370;-0.486;2023-08-06T19:54:23;101816.53;;;18.53;60.89
71424;BME280;59240;51.370;-0.486;2023-08-06T19:59:19;101815.28;;;18.40;61.32
71424;BME280;59240;51.370;-0.486;2023-08-06T20:04:17;101808.41;;;18.13;61.65
71424;BME280;59240;51.370;-0.486;2023-08-06T20:09:14;101801.28;;;17.91;61.80
71424;BME280;59240;51.370;-0.486;2023-08-06T20:14:12;101813.97;;;17.80;62.67
71424;BME280;59240;51.370;-0.486;2023-08-06T20:19:08;101833.34;;;17.79;63.11
71424;BME280;59240;51.370;-0.486;2023-08-06T20:24:05;101800.38;;;17.41;63.35
71424;BME280;59240;51.370;-0.486;2023-08-06T20:29:02;101831.94;;;17.42;64.03
71424;BME280;59240;51.370;-0.486;2023-08-06T20:34:00;101837.44;;;17.36;64.10
71424;BME280;59240;51.370;-0.486;2023-08-06T20:38:56;101851.69;;;17.29;64.55
71424;BME280;59240;51.370;-0.486;2023-08-06T20:43:53;101854.63;;;17.20;64.72
71424;BME280;59240;51.370;-0.486;2023-08-06T20:48:50;101827.34;;;16.94;65.28
71424;BME280;59240;51.370;-0.486;2023-08-06T20:53:47;101852.75;;;16.97;65.51
71424;BME280;59240;51.370;-0.486;2023-08-06T20:58:44;101831.63;;;16.71;65.67
71424;BME280;59240;51.370;-0.486;2023-08-06T21:03:40;101862.16;;;16.76;66.66
71424;BME280;59240;51.370;-0.486;2023-08-06T21:08:37;101872.97;;;16.65;67.06
71424;BME280;59240;51.370;-0.486;2023-08-06T21:13:35;101847.41;;;16.41;67.29
71424;BME280;59240;51.370;-0.486;2023-08-06T21:18:33;101877.03;;;16.48;67.49
71424;BME280;59240;51.370;-0.486;2023-08-06T21:23:30;101877.22;;;16.40;67.80
71424;BME280;59240;51.370;-0.486;2023-08-06T21:28:28;101868.91;;;16.24;68.27
71424;BME280;59240;51.370;-0.486;2023-08-06T21:33:30;101872.72;;;16.14;68.97
71424;BME280;59240;51.370;-0.486;2023-08-06T21:38:27;101860.22;;;15.90;69.12
71424;BME280;59240;51.370;-0.486;2023-08-06T21:43:24;101882.91;;;15.94;69.16
71424;BME280;59240;51.370;-0.486;2023-08-06T21:48:21;101864.06;;;15.76;69.66
71424;BME280;59240;51.370;-0.486;2023-08-06T21:53:20;101893.72;;;15.81;69.98
71424;BME280;59240;51.370;-0.486;2023-08-06T21:58:17;101892.22;;;15.73;69.99
71424;BME280;59240;51.370;-0.486;2023-08-06T22:03:14;101885.41;;;15.64;70.32
71424;BME280;59240;51.370;-0.486;2023-08-06T22:08:11;101872.69;;;15.47;70.74
71424;BME280;59240;51.370;-0.486;2023-08-06T22:13:08;101880.78;;;15.38;71.17
71424;BME280;59240;51.370;-0.486;2023-08-06T22:18:04;101887.94;;;15.31;71.55
71424;BME280;59240;51.370;-0.486;2023-08-06T22:23:03;101893.34;;;15.25;71.85
71424;BME280;59240;51.370;-0.486;2023-08-06T22:28:00;101864.16;;;15.00;71.88
71424;BME280;59240;51.370;-0.486;2023-08-06T22:32:58;101893.72;;;15.10;72.13
71424;BME280;59240;51.370;-0.486;2023-08-06T22:37:55;101894.56;;;15.11;72.35
71424;BME280;59240;51.370;-0.486;2023-08-06T22:42:51;101905.97;;;15.08;72.52
71424;BME280;59240;51.370;-0.486;2023-08-06T22:47:48;101913.13;;;15.03;72.64
71424;BME280;59240;51.370;-0.486;2023-08-06T22:52:45;101919.19;;;15.05;72.92
71424;BME280;59240;51.370;-0.486;2023-08-06T22:57:42;101913.13;;;15.03;73.34
71424;BME280;59240;51.370;-0.486;2023-08-06T23:02:39;101916.69;;;14.99;73.48
71424;BME280;59240;51.370;-0.486;2023-08-06T23:07:44;101919.28;;;15.00;73.46
71424;BME280;59240;51.370;-0.486;2023-08-06T23:12:41;101897.69;;;14.88;73.66
71424;BME280;59240;51.370;-0.486;2023-08-06T23:17:37;101922.94;;;14.93;73.83
71424;BME280;59240;51.370;-0.486;2023-08-06T23:22:35;101928.31;;;14.87;74.02
71424;BME280;59240;51.370;-0.486;2023-08-06T23:27:32;101930.13;;;14.85;74.14
71424;BME280;59240;51.370;-0.486;2023-08-06T23:32:29;101936.31;;;14.83;74.56
71424;BME280;59240;51.370;-0.486;2023-08-06T23:37:26;101931.09;;;14.80;74.56
71424;BME280;59240;51.370;-0.486;2023-08-06T23:42:22;101934.63;;;14.78;75.35
71424;BME280;59240;51.370;-0.486;2023-08-06T23:47:19;101928.56;;;14.76;75.08
71424;BME280;59240;51.370;-0.486;2023-08-06T23:52:16;101911.31;;;14.65;74.97
71424;BME280;59240;51.370;-0.486;2023-08-06T23:57:13;101927.78;;;14.71;75.17
